This is the latest recevied weather packets stored in our database for station/object EA1RCG-11. If no packets are shown the sender has not sent any weather packets the latest 10 day(s).
| Time | Temp. | Humidity | Pressure | Rain* | Wind** | Luminosity | Snow |
|---|---|---|---|---|---|---|---|
| 1787922448 | 27.22° C | 47% | 981.7 hPa | - | - | - | - |
| 1787920648 | 26.67° C | 48% | 981.8 hPa | - | - | - | - |
| 1787918848 | 26.67° C | 48% | 981.8 hPa | - | - | - | - |
| 1787917048 | 28.89° C | 46% | 981.9 hPa | - | - | - | - |
| 1787915248 | 29.44° C | 45% | 981.7 hPa | - | - | - | - |
| 1787913448 | 32.22° C | 42% | 981.6 hPa | - | - | - | - |
| 1787911648 | 42.78° C | 31% | 982.1 hPa | - | - | - | - |
| 1787909847 | 26.11° C | 47% | 981.3 hPa | - | - | - | - |
| 1787908047 | 25° C | 48% | 981 hPa | - | - | - | - |
| 1787906247 | 26.67° C | 45% | 980.6 hPa | - | - | - | - |
| 1787904447 | 26.11° C | 46% | 980.8 hPa | - | - | - | - |
| 1787902647 | 19.44° C | 53% | 980.3 hPa | - | - | - | - |
| 1787900847 | 18.33° C | 55% | 980 hPa | - | - | - | - |
| 1787899047 | 16.67° C | 56% | 979.7 hPa | - | - | - | - |
| 1787897247 | 15° C | 58% | 979.7 hPa | - | - | - | - |
| 1787895447 | 13.33° C | 60% | 980 hPa | - | - | - | - |
| 1787893646 | 13.89° C | 59% | 979.9 hPa | - | - | - | - |
| 1787891846 | 13.33° C | 60% | 979.9 hPa | - | - | - | - |
| 1787890046 | 12.78° C | 61% | 980 hPa | - | - | - | - |
| 1787888246 | 13.33° C | 61% | 980 hPa | - | - | - | - |
| 1787886446 | 13.33° C | 61% | 980.1 hPa | - | - | - | - |
| 1787884646 | 13.33° C | 61% | 979.7 hPa | - | - | - | - |
| 1787882846 | 13.89° C | 60% | 979.7 hPa | - | - | - | - |
| 1787881046 | 13.89° C | 60% | 979.9 hPa | - | - | - | - |
| 1787879246 | 14.44° C | 60% | 979.7 hPa | - | - | - | - |
* Rain since midnight (hover to see other rain measurements)
** Current wind speed in m/s (hover to see current wind gust speed)